Current Weather

Pontiac Muni

Pontiac, Illinois (KPNT)

Report from: Wednesday, May 29, 2024 3:55 AM CDT
Current time: Wednesday, May 29, 2024 4:26 AM CDT

Nearby weather – Weather history – Daily summaries
Weather forecast

Temperature11.8°C (53.2°F)
Dew point10.0°C (50.0°F)
Winds 7 kts (3.6 m/s, 8.1 mph) Northwest (320°)
Visibility10 mi. (16.1 km)
Clouds Sky clear
Altimeter30.09 in.Hg (1019 mB)
Relative humidity89 %
Density altitude-401 ft. (-122 m)
Remarks Fully automated report
Automated weather observing station with precipitation discriminator
Flight conditions Visual Meteorological Conditions
Raw dataKPNT 290855Z AUTO 32007KT 10SM CLR 12/10 A3009 RMK AO2 T01180100
An error has occurred. This application may no longer respond until reloaded. Reload 🗙